Time;durP1;ratioP1;P1;durP2;ratioP2;P2;SDS_P1;SDS_P2;PMS_P1;PMS_P2;Temp;Humidity;BMP_temperature;BMP_pressure;BME280_temperature;BME280_humidity;BME280_pressure;Samples;Min_cycle;Max_cycle;Signal;HPM_P1;HPM_P2
2023/03/18 00:01:53;;;;;;;5.70;5.00;;;;;;;9.00;94.67;96285.84;5072273;28;20542;-56
2023/03/18 00:04:20;;;;;;;9.67;5.70;;;;;;;9.04;94.62;96285.56;5072138;28;21505;-56
2023/03/18 00:06:46;;;;;;;5.97;5.37;;;;;;;8.93;96.68;96287.38;5071039;28;20527;-55
2023/03/18 00:09:14;;;;;;;6.13;4.77;;;;;;;8.93;98.04;96290.03;5071789;28;20202;-56
2023/03/18 00:11:40;;;;;;;5.97;5.00;;;;;;;8.90;98.56;96286.84;5071251;28;20224;-56
2023/03/18 00:14:10;;;;;;;6.00;5.37;;;;;;;8.95;97.28;96293.38;5071256;28;20638;-56
2023/03/18 00:16:36;;;;;;;6.03;5.53;;;;;;;8.90;97.75;96292.09;5071490;28;20289;-56
2023/03/18 00:19:03;;;;;;;6.43;5.17;;;;;;;8.87;98.16;96295.03;5071313;28;20872;-56
2023/03/18 00:21:30;;;;;;;5.97;5.10;;;;;;;8.84;98.44;96297.94;5070359;28;20638;-56
2023/03/18 00:23:57;;;;;;;6.10;5.57;;;;;;;8.83;97.88;96293.66;5071670;28;20577;-56
2023/03/18 00:26:24;;;;;;;6.43;5.20;;;;;;;8.82;98.05;96298.09;5070501;28;20210;-57
2023/03/18 00:28:50;;;;;;;7.43;5.60;;;;;;;8.81;97.96;96295.59;5071626;28;20333;-56
2023/03/18 00:31:19;;;;;;;8.63;5.80;;;;;;;8.66;99.27;96297.84;5071407;28;20217;-56
2023/03/18 00:33:46;;;;;;;8.87;7.60;;;;;;;8.65;99.95;96290.88;5071330;28;20194;-56
2023/03/18 00:36:13;;;;;;;10.20;6.57;;;;;;;8.64;99.98;96302.41;5070120;28;20289;-56
2023/03/18 00:38:41;;;;;;;7.53;5.20;;;;;;;8.67;98.62;96304.78;5070947;28;20237;-56
2023/03/18 00:41:10;;;;;;;7.93;5.17;;;;;;;8.59;99.46;96303.78;5071045;28;20217;-56
2023/03/18 00:43:44;;;;;;;7.07;5.20;;;;;;;8.58;99.83;96315.28;5070996;28;20206;-56
2023/03/18 00:46:12;;;;;;;5.47;4.97;;;;;;;8.57;99.81;96314.50;5071143;28;20199;-56
2023/03/18 00:48:39;;;;;;;5.63;5.13;;;;;;;8.52;99.99;96311.44;5071128;28;20234;-57
2023/03/18 00:51:06;;;;;;;5.70;5.17;;;;;;;8.51;99.96;96304.47;5070964;28;20206;-55
2023/03/18 00:53:33;;;;;;;6.73;5.40;;;;;;;8.51;99.22;96304.47;5070740;28;20230;-56
2023/03/18 00:55:59;;;;;;;7.37;5.67;;;;;;;8.42;99.67;96315.88;5071334;28;20214;-56
2023/03/18 00:58:25;;;;;;;6.50;5.50;;;;;;;8.45;100.00;96311.16;5070511;28;20285;-56
2023/03/18 01:00:52;;;;;;;7.17;5.67;;;;;;;8.40;100.00;96305.44;5071198;28;20209;-56
2023/03/18 01:03:18;;;;;;;6.03;5.23;;;;;;;8.43;99.97;96312.28;5070010;28;20210;-55
2023/03/18 01:05:46;;;;;;;5.53;5.03;;;;;;;8.44;100.00;96308.63;5070161;28;20522;-56
2023/03/18 01:08:12;;;;;;;5.47;4.93;;;;;;;8.28;100.00;96310.97;5069863;28;21327;-54
2023/03/18 01:10:39;;;;;;;6.43;5.83;;;;;;;8.32;100.00;96309.75;5070708;28;20202;-56
2023/03/18 01:13:05;;;;;;;7.07;5.73;;;;;;;8.25;100.00;96301.53;5070071;28;20211;-56
2023/03/18 01:15:32;;;;;;;7.83;6.17;;;;;;;8.22;100.00;96308.88;5070775;28;20221;-56
2023/03/18 01:17:58;;;;;;;7.23;5.70;;;;;;;8.22;100.00;96304.44;5070432;28;20234;-55
2023/03/18 01:20:25;;;;;;;6.47;5.23;;;;;;;8.23;100.00;96305.25;5070700;28;20202;-56
2023/03/18 01:22:53;;;;;;;5.80;5.23;;;;;;;8.20;100.00;96305.53;5070870;28;20229;-56
2023/03/18 01:25:20;;;;;;;6.83;5.40;;;;;;;8.16;100.00;96304.16;5071057;28;20285;-56
2023/03/18 01:27:47;;;;;;;6.33;5.73;;;;;;;8.17;100.00;96309.28;5070450;28;20272;-56
2023/03/18 01:30:14;;;;;;;9.73;6.33;;;;;;;8.16;100.00;96299.72;5070323;28;20206;-56
2023/03/18 01:32:42;;;;;;;8.30;6.27;;;;;;;8.10;100.00;96302.91;5070902;28;20202;-56
2023/03/18 01:35:11;;;;;;;8.57;5.93;;;;;;;8.17;100.00;96300.56;5070263;28;20207;-54
2023/03/18 01:37:37;;;;;;;7.43;5.90;;;;;;;8.05;100.00;96306.91;5070775;28;20206;-55
2023/03/18 01:40:07;;;;;;;7.43;6.37;;;;;;;8.00;100.00;96300.25;5070376;28;20202;-56
2023/03/18 01:42:33;;;;;;;6.80;5.83;;;;;;;8.00;100.00;96302.91;5070881;28;20214;-56
2023/03/18 01:45:11;;;;;;;7.90;6.27;;;;;;;7.95;100.00;96304.25;5070557;28;20197;-56
2023/03/18 01:47:37;;;;;;;5.90;5.27;;;;;;;7.99;100.00;96300.38;5071130;28;20209;-56
2023/03/18 01:50:04;;;;;;;6.40;5.80;;;;;;;7.98;100.00;96296.91;5070172;28;20295;-56
2023/03/18 01:52:31;;;;;;;6.63;5.93;;;;;;;7.82;100.00;96306.31;5069802;28;20210;-56
2023/03/18 01:55:00;;;;;;;6.50;5.90;;;;;;;7.89;100.00;96296.91;5070041;28;20256;-56
2023/03/18 01:57:29;;;;;;;6.77;5.80;;;;;;;7.88;100.00;96296.06;5070678;28;20263;-56
2023/03/18 01:59:57;;;;;;;8.17;6.00;;;;;;;7.84;100.00;96294.66;5084623;28;20206;-56
2023/03/18 02:02:24;;;;;;;8.17;6.20;;;;;;;7.80;100.00;96295.91;5090819;28;20227;-56
2023/03/18 02:04:55;;;;;;;6.27;5.67;;;;;;;7.83;100.00;96298.25;5079575;28;20272;-56
2023/03/18 02:07:24;;;;;;;7.83;6.03;;;;;;;7.76;100.00;96297.13;5070688;28;20517;-56
2023/03/18 02:09:51;;;;;;;7.23;5.60;;;;;;;7.73;100.00;96296.56;5074401;28;20198;-57
2023/03/18 02:12:24;;;;;;;6.77;6.10;;;;;;;7.69;100.00;96293.38;5075835;28;20203;-57
2023/03/18 02:14:53;;;;;;;7.33;6.20;;;;;;;7.62;100.00;96289.59;5072648;28;20226;-56
2023/03/18 02:17:22;;;;;;;6.50;5.90;;;;;;;7.66;100.00;96291.00;5072096;28;20206;-56
2023/03/18 02:19:58;;;;;;;7.43;5.90;;;;;;;7.66;100.00;96285.75;5090243;28;20311;-56
2023/03/18 02:22:28;;;;;;;6.23;5.63;;;;;;;7.67;100.00;96297.09;5095780;28;20191;-57
2023/03/18 02:25:04;;;;;;;8.53;5.87;;;;;;;7.59;100.00;96300.41;5086883;28;20236;-57
2023/03/18 02:27:33;;;;;;;8.50;5.23;;;;;;;7.53;100.00;96300.09;5074041;28;20626;-55
2023/03/18 02:30:04;;;;;;;5.90;5.40;;;;;;;7.57;100.00;96299.72;5073575;28;20259;-57
2023/03/18 02:32:31;;;;;;;6.23;5.27;;;;;;;7.56;100.00;96299.84;5073656;28;20766;-56
2023/03/18 02:35:00;;;;;;;6.20;5.50;;;;;;;7.61;100.00;96297.66;5073584;28;20201;-57
2023/03/18 02:37:26;;;;;;;8.77;5.87;;;;;;;7.60;100.00;96296.81;5072981;28;20202;-55
2023/03/18 02:39:53;;;;;;;6.80;5.43;;;;;;;7.47;100.00;96290.97;5072814;28;20559;-55
2023/03/18 02:42:27;;;;;;;7.33;5.37;;;;;;;7.43;100.00;96294.81;5072369;28;20210;-59
2023/03/18 02:44:55;;;;;;;8.43;6.00;;;;;;;7.39;100.00;96293.41;5073340;28;20198;-56
2023/03/18 02:47:23;;;;;;;5.80;5.30;;;;;;;7.37;100.00;96287.44;5072805;28;20250;-56
2023/03/18 02:49:50;;;;;;;5.70;5.10;;;;;;;7.43;100.00;96289.56;5073314;28;20221;-56
2023/03/18 02:52:17;;;;;;;7.17;5.20;;;;;;;7.39;100.00;96285.50;5073519;28;20198;-56
2023/03/18 02:54:43;;;;;;;6.33;5.43;;;;;;;7.43;100.00;96289.56;5073715;28;20202;-55
2023/03/18 02:57:09;;;;;;;6.47;5.07;;;;;;;7.39;100.00;96288.97;5072783;28;20230;-56
2023/03/18 02:59:36;;;;;;;7.53;5.43;;;;;;;7.37;100.00;96288.25;5073492;28;20230;-56
2023/03/18 03:02:04;;;;;;;7.90;5.70;;;;;;;7.25;100.00;96291.13;5072304;28;20213;-55
2023/03/18 03:04:30;;;;;;;6.93;5.10;;;;;;;7.16;100.00;96294.53;5073489;28;20214;-56
2023/03/18 03:06:58;;;;;;;5.30;4.80;;;;;;;7.19;100.00;96289.84;5071233;28;20534;-56
2023/03/18 03:09:27;;;;;;;8.43;4.93;;;;;;;7.14;100.00;96288.56;5072611;28;20332;-56
2023/03/18 03:11:54;;;;;;;5.30;4.80;;;;;;;7.09;100.00;96299.47;5072391;28;20195;-55
2023/03/18 03:14:21;;;;;;;5.87;4.60;;;;;;;7.10;100.00;96297.69;5073632;28;20209;-55
2023/03/18 03:16:48;;;;;;;5.70;5.20;;;;;;;7.05;100.00;96302.50;5072302;28;20203;-56
2023/03/18 03:19:16;;;;;;;6.17;4.40;;;;;;;7.13;100.00;96294.78;5074164;28;20218;-55
2023/03/18 03:21:42;;;;;;;5.37;4.73;;;;;;;7.11;100.00;96297.56;5076010;28;20213;-57
2023/03/18 03:24:09;;;;;;;5.00;4.50;;;;;;;7.05;100.00;96299.88;5076170;28;20841;-56
2023/03/18 03:26:36;;;;;;;5.50;4.70;;;;;;;7.08;100.00;96310.13;5076364;28;20581;-56
2023/03/18 03:29:04;;;;;;;5.17;4.20;;;;;;;7.07;100.00;96295.31;5072860;28;20213;-56
2023/03/18 03:31:30;;;;;;;4.87;4.27;;;;;;;7.06;100.00;96299.75;5072083;28;20303;-56
2023/03/18 03:33:57;;;;;;;4.77;4.27;;;;;;;7.05;100.00;96307.78;5071696;28;20199;-57
2023/03/18 03:36:26;;;;;;;4.40;4.10;;;;;;;7.05;100.00;96313.84;5070986;28;20199;-56
2023/03/18 03:38:52;;;;;;;4.83;4.03;;;;;;;6.89;100.00;96314.31;5072148;28;20717;-56
2023/03/18 03:41:19;;;;;;;4.53;4.13;;;;;;;6.98;100.00;96313.53;5071357;28;20216;-55
2023/03/18 03:43:46;;;;;;;4.73;4.13;;;;;;;6.99;100.00;96312.56;5072404;28;21338;-55
2023/03/18 03:46:12;;;;;;;5.33;4.10;;;;;;;6.94;100.00;96314.75;5071417;28;20206;-56
2023/03/18 03:48:39;;;;;;;5.30;4.00;;;;;;;6.83;100.00;96309.56;5071993;28;20238;-56
2023/03/18 03:51:06;;;;;;;6.43;4.00;;;;;;;6.83;100.00;96312.22;5071817;28;20199;-56
2023/03/18 03:53:34;;;;;;;5.07;4.17;;;;;;;6.80;100.00;96309.81;5071880;28;20818;-56
2023/03/18 03:56:01;;;;;;;4.40;4.00;;;;;;;6.80;100.00;96306.38;5072162;28;20203;-56
2023/03/18 03:58:28;;;;;;;4.30;3.90;;;;;;;6.86;100.00;96311.09;5071525;28;20631;-55
2023/03/18 04:00:55;;;;;;;4.20;3.80;;;;;;;6.84;100.00;96310.38;5071678;28;20252;-55
2023/03/18 04:03:22;;;;;;;4.20;3.80;;;;;;;6.83;100.00;96306.94;5072076;28;20264;-56
2023/03/18 04:05:49;;;;;;;4.53;4.07;;;;;;;6.81;100.00;96315.91;5071624;28;20210;-56
2023/03/18 04:08:15;;;;;;;5.00;4.23;;;;;;;6.72;100.00;96320.16;5072647;28;20294;-57
2023/03/18 04:10:43;;;;;;;5.50;3.70;;;;;;;6.68;100.00;96318.72;5072742;28;20198;-57
2023/03/18 04:13:10;;;;;;;4.43;3.80;;;;;;;6.70;100.00;96316.78;5072304;28;20493;-57
2023/03/18 04:15:37;;;;;;;3.93;3.63;;;;;;;6.63;100.00;96322.69;5072372;28;20238;-57
2023/03/18 04:18:05;;;;;;;5.33;3.57;;;;;;;6.62;100.00;96319.25;5071953;28;20217;-56
2023/03/18 04:20:33;;;;;;;6.50;3.80;;;;;;;6.53;100.00;96317.34;5072446;28;20249;-55
2023/03/18 04:23:00;;;;;;;4.40;3.63;;;;;;;6.55;100.00;96315.47;5073042;28;20257;-56
2023/03/18 04:25:27;;;;;;;3.93;3.10;;;;;;;6.58;100.00;96323.09;5072633;28;20199;-55
2023/03/18 04:27:55;;;;;;;3.93;3.10;;;;;;;6.50;100.00;96320.25;5074444;28;20305;-55
2023/03/18 04:30:24;;;;;;;4.43;3.10;;;;;;;6.60;100.00;96321.16;5078215;28;20202;-56
2023/03/18 04:32:50;;;;;;;6.03;3.27;;;;;;;6.61;100.00;96322.81;5093003;28;20212;-58
2023/03/18 04:35:18;;;;;;;6.10;2.73;;;;;;;6.57;100.00;96324.03;5077233;28;20210;-56
2023/03/18 04:37:44;;;;;;;4.40;3.03;;;;;;;6.55;100.00;96327.75;5078696;28;20206;-57
2023/03/18 04:40:12;;;;;;;4.53;3.20;;;;;;;6.42;100.00;96330.53;5085229;28;20225;-57
2023/03/18 04:42:39;;;;;;;4.13;3.33;;;;;;;6.37;100.00;96324.84;5078549;28;20210;-59
2023/03/18 04:45:11;;;;;;;3.70;2.93;;;;;;;6.32;100.00;96316.50;5074708;28;20221;-54
2023/03/18 04:47:38;;;;;;;3.43;2.90;;;;;;;6.37;100.00;96325.69;5078649;28;20680;-57
2023/03/18 04:50:07;;;;;;;5.27;2.83;;;;;;;6.44;100.00;96320.75;5070511;28;20234;-57
2023/03/18 04:52:35;;;;;;;3.10;2.90;;;;;;;6.36;100.00;96323.16;5071784;28;20202;-55
2023/03/18 04:55:02;;;;;;;3.50;2.90;;;;;;;6.15;100.00;96327.53;5070999;28;20529;-56
2023/03/18 04:57:28;;;;;;;4.17;3.00;;;;;;;6.18;100.00;96330.75;5070948;28;20207;-56
2023/03/18 04:59:57;;;;;;;2.77;2.57;;;;;;;6.21;100.00;96330.50;5070634;28;20214;-56
2023/03/18 05:02:24;;;;;;;6.17;2.50;;;;;;;6.29;100.00;96324.63;5071327;28;20244;-56
2023/03/18 05:04:51;;;;;;;2.50;2.30;;;;;;;6.14;100.00;96329.31;5070426;28;20207;-55
2023/03/18 05:07:20;;;;;;;2.17;2.07;;;;;;;6.19;100.00;96326.34;5070914;28;20209;-54
2023/03/18 05:09:46;;;;;;;2.70;2.10;;;;;;;6.08;100.00;96324.56;5070997;28;20529;-57
2023/03/18 05:12:14;;;;;;;2.67;2.13;;;;;;;6.12;100.00;96330.41;5071063;28;20218;-56
2023/03/18 05:14:41;;;;;;;3.23;2.10;;;;;;;6.10;100.00;96321.81;5070666;28;20602;-56
2023/03/18 05:17:14;;;;;;;3.13;1.90;;;;;;;6.14;100.00;96328.47;5070592;28;20285;-56
2023/03/18 05:19:42;;;;;;;6.27;2.43;;;;;;;6.21;100.00;96324.41;5071228;28;20211;-56
2023/03/18 05:22:09;;;;;;;3.30;2.13;;;;;;;6.21;100.00;96327.88;5070372;28;20305;-56
2023/03/18 05:24:35;;;;;;;4.17;2.27;;;;;;;6.16;100.00;96322.16;5070299;28;20236;-56
2023/03/18 05:27:02;;;;;;;2.33;1.80;;;;;;;6.05;100.00;96324.81;5070643;28;20199;-55
2023/03/18 05:29:28;;;;;;;5.30;2.43;;;;;;;6.03;100.00;96320.63;5070196;28;20233;-56
2023/03/18 05:31:55;;;;;;;3.60;2.03;;;;;;;5.92;100.00;96317.06;5070624;28;20209;-56
2023/03/18 05:34:21;;;;;;;3.27;2.20;;;;;;;5.93;100.00;96317.91;5069756;28;20210;-56
2023/03/18 05:36:52;;;;;;;3.47;2.37;;;;;;;5.92;100.00;96322.31;5070632;28;20256;-56
2023/03/18 05:39:19;;;;;;;3.43;2.60;;;;;;;5.90;100.00;96323.41;5069882;28;20214;-57
2023/03/18 05:41:45;;;;;;;3.80;2.70;;;;;;;5.92;100.00;96319.69;5070549;28;20210;-56
2023/03/18 05:44:12;;;;;;;4.40;2.53;;;;;;;5.83;100.00;96320.41;5070720;28;20218;-56
2023/03/18 05:46:39;;;;;;;3.10;2.40;;;;;;;5.79;100.00;96319.00;5070992;28;20206;-56
2023/03/18 05:49:07;;;;;;;2.90;2.70;;;;;;;5.84;100.00;96319.47;5069663;28;20234;-56
2023/03/18 05:51:34;;;;;;;3.90;2.13;;;;;;;5.91;100.00;96318.06;5070618;28;20259;-56
2023/03/18 05:54:02;;;;;;;4.33;2.20;;;;;;;5.86;100.00;96314.94;5069892;28;20207;-56
2023/03/18 05:56:30;;;;;;;5.37;2.37;;;;;;;6.00;100.00;96322.56;5073024;28;20498;-57
2023/03/18 05:58:56;;;;;;;2.20;2.10;;;;;;;5.93;100.00;96324.00;5073509;28;20198;-56
2023/03/18 06:01:23;;;;;;;3.03;2.33;;;;;;;5.99;100.00;96320.88;5074462;28;20218;-56
2023/03/18 06:03:50;;;;;;;2.23;1.87;;;;;;;5.97;100.00;96322.81;5074369;28;20228;-56
2023/03/18 06:06:16;;;;;;;3.47;2.40;;;;;;;6.07;100.00;96322.06;5074996;28;20206;-56
2023/03/18 06:08:44;;;;;;;3.00;2.40;;;;;;;6.14;100.00;96326.69;5074440;28;20713;-56
2023/03/18 06:11:12;;;;;;;3.43;2.30;;;;;;;6.34;100.00;96325.09;5075094;28;20202;-56
2023/03/18 06:13:38;;;;;;;5.10;2.40;;;;;;;6.65;100.00;96329.50;5095500;28;20175;-55
2023/03/18 06:16:06;;;;;;;3.13;2.07;;;;;;;6.81;100.00;96319.38;5099066;28;20208;-56
2023/03/18 06:18:32;;;;;;;2.70;1.93;;;;;;;7.03;100.00;96325.47;5079297;28;20533;-57
2023/03/18 06:20:58;;;;;;;3.63;2.70;;;;;;;7.09;100.00;96330.19;5074105;28;21100;-56
2023/03/18 06:23:27;;;;;;;3.43;2.10;;;;;;;7.28;98.63;96327.69;5073626;28;20263;-56
2023/03/18 06:25:53;;;;;;;2.17;2.00;;;;;;;7.30;98.92;96336.25;5074265;28;20236;-56
2023/03/18 06:28:21;;;;;;;3.07;2.00;;;;;;;7.44;97.59;96338.53;5073582;28;20656;-56
2023/03/18 06:30:47;;;;;;;2.93;2.20;;;;;;;7.58;96.92;96346.09;5076133;28;20190;-55
2023/03/18 06:33:15;;;;;;;5.60;1.90;;;;;;;8.07;94.96;96347.94;5097087;28;20194;-55
2023/03/18 06:35:42;;;;;;;2.83;2.27;;;;;;;8.75;91.05;96333.88;5097904;28;20187;-56
2023/03/18 06:38:13;;;;;;;3.00;2.20;;;;;;;9.99;85.65;96342.44;5093554;28;20289;-56
2023/03/18 06:40:39;;;;;;;3.60;2.13;;;;;;;10.55;80.48;96334.38;5074480;28;20219;-56
2023/03/18 06:43:06;;;;;;;2.47;2.27;;;;;;;11.46;76.75;96333.13;5073592;28;20199;-56
2023/03/18 06:45:34;;;;;;;2.90;1.97;;;;;;;12.70;71.32;96335.13;5073586;28;20636;-55
2023/03/18 06:48:00;;;;;;;2.73;2.13;;;;;;;12.77;68.14;96333.47;5074203;28;20213;-56
2023/03/18 06:50:27;;;;;;;2.92;2.60;;;;;;;13.83;63.65;96333.25;5072456;28;21318;-56
2023/03/18 06:52:54;;;;;;;5.93;3.15;;;;;;;14.31;63.27;96340.22;5073155;28;20203;-56
2023/03/18 06:55:20;;;;;;;3.97;3.67;;;;;;;15.03;61.37;96332.81;5073251;28;20217;-55
2023/03/18 06:57:47;;;;;;;4.32;3.90;;;;;;;15.49;57.29;96336.31;5073949;28;20202;-55
2023/03/18 07:00:14;;;;;;;3.90;3.53;;;;;;;16.16;56.42;96336.25;5073581;28;20226;-56
2023/03/18 07:02:43;;;;;;;4.85;3.70;;;;;;;15.51;56.83;96336.97;5075109;28;20293;-56
2023/03/18 07:05:11;;;;;;;4.90;3.70;;;;;;;15.03;58.68;96339.97;5076270;28;20256;-55
2023/03/18 07:07:38;;;;;;;7.07;3.90;;;;;;;14.88;59.42;96337.25;5074361;28;20294;-56
2023/03/18 07:10:05;;;;;;;5.65;4.00;;;;;;;14.14;63.31;96343.13;5074539;28;20194;-55
2023/03/18 07:12:32;;;;;;;4.53;4.13;;;;;;;13.43;65.40;96341.31;5073389;28;20206;-56
2023/03/18 07:14:58;;;;;;;4.28;3.88;;;;;;;12.95;66.52;96344.78;5073616;28;20225;-55
2023/03/18 07:17:25;;;;;;;5.03;4.32;;;;;;;12.31;69.79;96353.44;5073055;28;20214;-56
2023/03/18 07:19:53;;;;;;;4.72;4.28;;;;;;;12.00;72.11;96349.66;5072972;28;20237;-55
2023/03/18 07:22:20;;;;;;;5.95;4.50;;;;;;;11.43;74.84;96346.66;5072323;28;20206;-55
2023/03/18 07:24:46;;;;;;;5.60;4.43;;;;;;;11.45;75.43;96349.97;5072412;28;20628;-55
2023/03/18 07:27:13;;;;;;;5.73;4.63;;;;;;;11.27;76.80;96351.84;5073100;28;20206;-56
2023/03/18 07:29:39;;;;;;;5.20;4.70;;;;;;;11.16;78.25;96350.25;5072078;28;20678;-56
2023/03/18 07:32:06;;;;;;;5.03;4.63;;;;;;;10.96;78.77;96349.63;5072709;28;20214;-55
2023/03/18 07:34:33;;;;;;;5.23;4.73;;;;;;;10.83;80.04;96354.47;5071801;28;20210;-56
2023/03/18 07:37:01;;;;;;;5.17;4.67;;;;;;;10.67;79.47;96351.66;5072603;28;20202;-55
2023/03/18 07:39:28;;;;;;;7.43;5.20;;;;;;;10.60;80.16;96353.25;5072181;28;20213;-56
2023/03/18 07:41:54;;;;;;;5.90;5.20;;;;;;;10.73;81.55;96348.44;5073155;28;20471;-56
2023/03/18 07:44:22;;;;;;;5.77;5.10;;;;;;;10.71;81.89;96349.53;5071916;28;20643;-55
2023/03/18 07:46:48;;;;;;;5.43;4.80;;;;;;;10.76;81.22;96349.94;5072609;28;20207;-56
2023/03/18 07:49:15;;;;;;;5.63;4.93;;;;;;;10.84;83.05;96348.19;5072327;28;20234;-58
2023/03/18 07:51:41;;;;;;;5.50;5.00;;;;;;;10.83;80.46;96348.34;5071916;28;20195;-56
2023/03/18 07:54:09;;;;;;;5.03;4.60;;;;;;;10.92;80.21;96353.53;5072193;28;20206;-58
2023/03/18 07:56:36;;;;;;;5.37;4.87;;;;;;;10.99;79.48;96354.59;5072098;28;20276;-56
2023/03/18 07:59:02;;;;;;;5.73;5.23;;;;;;;10.93;78.08;96355.22;5072328;28;20210;-56
2023/03/18 08:01:29;;;;;;;9.33;5.07;;;;;;;10.97;78.03;96345.16;5071668;28;20226;-55
2023/03/18 08:03:56;;;;;;;5.57;5.07;;;;;;;11.06;77.83;96348.69;5072263;28;20210;-57
2023/03/18 08:06:24;;;;;;;7.57;5.30;;;;;;;10.96;76.26;96349.63;5071777;28;20206;-56
2023/03/18 08:08:50;;;;;;;6.07;5.50;;;;;;;11.02;76.77;96348.16;5071987;28;20198;-57
2023/03/18 08:11:18;;;;;;;6.10;5.50;;;;;;;11.07;76.76;96358.28;5073189;28;20233;-55
2023/03/18 08:13:44;;;;;;;6.33;5.43;;;;;;;11.12;76.35;96348.94;5072431;28;20203;-56
2023/03/18 08:16:11;;;;;;;6.50;5.73;;;;;;;11.23;77.40;96356.59;5072066;28;20560;-57
2023/03/18 08:18:37;;;;;;;8.00;4.80;;;;;;;11.31;76.48;96343.44;5071186;28;20206;-56
2023/03/18 08:21:04;;;;;;;4.57;4.23;;;;;;;11.41;76.66;96349.47;5070832;28;20666;-55
2023/03/18 08:23:32;;;;;;;5.10;4.60;;;;;;;11.47;76.05;96345.38;5069565;28;20198;-56
2023/03/18 08:25:58;;;;;;;4.50;4.20;;;;;;;11.53;75.56;96350.03;5071395;28;20543;-56
2023/03/18 08:28:26;;;;;;;4.67;4.17;;;;;;;11.61;75.24;96352.75;5071132;28;20248;-55
2023/03/18 08:30:55;;;;;;;4.40;3.53;;;;;;;11.72;74.50;96352.50;5071652;28;20201;-56
2023/03/18 08:33:21;;;;;;;3.80;3.50;;;;;;;11.78;73.43;96361.63;5072442;28;20609;-55
2023/03/18 08:35:49;;;;;;;6.83;3.73;;;;;;;11.86;72.81;96354.59;5071320;28;20297;-55
2023/03/18 08:38:15;;;;;;;5.40;3.60;;;;;;;11.96;71.36;96363.22;5071587;28;20208;-55
2023/03/18 08:40:42;;;;;;;4.20;3.60;;;;;;;12.03;73.25;96352.00;5070441;28;20230;-56
2023/03/18 08:43:09;;;;;;;4.17;3.30;;;;;;;12.04;69.48;96345.72;5071293;28;20293;-54
2023/03/18 08:45:39;;;;;;;2.73;2.53;;;;;;;12.19;70.87;96349.41;5071492;28;20210;-56
2023/03/18 08:48:07;;;;;;;5.47;2.97;;;;;;;12.26;69.69;96347.75;5070216;28;21538;-55
2023/03/18 08:50:34;;;;;;;3.57;2.77;;;;;;;12.32;68.79;96345.31;5069850;28;20222;-55
2023/03/18 08:53:01;;;;;;;3.10;2.80;;;;;;;12.41;68.97;96343.50;5072230;28;20213;-56
2023/03/18 08:55:29;;;;;;;4.73;3.30;;;;;;;12.46;66.89;96339.41;5075169;28;20198;-56
2023/03/18 08:57:56;;;;;;;6.70;3.00;;;;;;;12.59;66.90;96346.88;5077068;28;20272;-56
2023/03/18 09:00:24;;;;;;;4.70;3.73;;;;;;;12.75;67.09;96338.13;5071923;28;20273;-56
2023/03/18 09:02:52;;;;;;;3.77;3.40;;;;;;;12.95;67.18;96337.66;5070717;28;20206;-57
2023/03/18 09:05:18;;;;;;;3.27;2.97;;;;;;;13.27;66.03;96339.50;5069336;28;20306;-56
2023/03/18 09:07:45;;;;;;;3.20;2.90;;;;;;;13.62;65.61;96334.81;5071037;28;20210;-55
2023/03/18 09:10:13;;;;;;;4.07;2.70;;;;;;;14.01;63.88;96332.19;5070654;28;20198;-55
2023/03/18 09:12:40;;;;;;;3.97;2.73;;;;;;;14.35;60.63;96338.06;5070888;28;20292;-56
2023/03/18 09:15:08;;;;;;;3.87;3.47;;;;;;;14.70;58.80;96334.06;5070890;28;20210;-54
2023/03/18 09:17:36;;;;;;;4.82;3.40;;;;;;;15.01;58.37;96336.69;5070923;28;20202;-52
2023/03/18 09:20:04;;;;;;;4.43;3.22;;;;;;;15.36;56.99;96320.91;5069784;28;20223;-54
2023/03/18 09:22:31;;;;;;;4.10;3.27;;;;;;;15.50;58.22;96318.47;5070877;28;20215;-60
2023/03/18 09:24:57;;;;;;;4.47;2.80;;;;;;;15.87;56.22;96315.78;5073594;28;20206;-54
2023/03/18 09:27:24;;;;;;;3.63;3.10;;;;;;;16.08;52.45;96320.38;5074484;28;20210;-55
2023/03/18 09:29:50;;;;;;;3.20;2.90;;;;;;;16.51;51.74;96315.97;5073668;28;20206;-55
2023/03/18 09:32:17;;;;;;;4.80;3.30;;;;;;;16.76;50.39;96314.63;5070555;28;20688;-54
2023/03/18 09:34:45;;;;;;;3.97;3.17;;;;;;;17.25;50.83;96309.38;5070042;28;20205;-55
2023/03/18 09:37:13;;;;;;;4.70;3.20;;;;;;;17.60;49.74;96303.13;5070326;28;20294;-56
2023/03/18 09:39:40;;;;;;;5.10;3.00;;;;;;;17.91;47.65;96305.38;5071061;28;20214;-54
2023/03/18 09:42:17;;;;;;;6.00;3.50;;;;;;;18.32;47.21;96310.72;5070339;28;20362;-55
2023/03/18 09:44:44;;;;;;;3.42;3.13;;;;;;;18.35;44.76;96305.00;5071761;28;20231;-55
2023/03/18 09:47:22;;;;;;;3.65;3.30;;;;;;;18.55;47.07;96297.88;5070870;28;20335;-56
2023/03/18 09:49:58;;;;;;;4.72;3.08;;;;;;;18.70;46.72;96290.53;5070056;28;20242;-56
2023/03/18 09:52:27;;;;;;;5.22;3.05;;;;;;;19.13;45.00;96300.91;5068716;28;20202;-56
2023/03/18 09:54:58;;;;;;;2.97;2.70;;;;;;;19.43;43.35;96293.31;5070125;28;20566;-54
2023/03/18 09:57:26;;;;;;;4.30;3.20;;;;;;;19.41;43.29;96296.22;5070207;28;20539;-55
2023/03/18 09:59:54;;;;;;;3.63;2.97;;;;;;;19.94;41.70;96294.31;5072543;28;20206;-54
2023/03/18 10:02:25;;;;;;;3.92;3.05;;;;;;;20.57;40.86;96287.31;5073928;28;20303;-54
2023/03/18 10:04:54;;;;;;;5.75;3.00;;;;;;;21.10;40.35;96277.09;5071870;28;20282;-55
2023/03/18 10:07:23;;;;;;;3.55;3.13;;;;;;;21.31;40.80;96281.28;5070062;28;20199;-54
2023/03/18 10:09:54;;;;;;;3.80;2.70;;;;;;;21.42;37.92;96279.75;5069942;28;20222;-55
2023/03/18 10:12:26;;;;;;;5.45;3.08;;;;;;;21.21;39.17;96278.28;5069933;28;20226;-55
2023/03/18 10:15:01;;;;;;;4.38;2.80;;;;;;;21.53;39.50;96282.56;5070363;28;20286;-54
2023/03/18 10:17:31;;;;;;;2.65;2.45;;;;;;;21.49;39.11;96277.84;5070228;28;20237;-55
2023/03/18 10:19:59;;;;;;;4.38;3.03;;;;;;;21.40;36.99;96277.28;5070495;28;20306;-55
2023/03/18 10:22:38;;;;;;;2.95;2.53;;;;;;;21.36;38.18;96281.47;5070239;28;20226;-55
2023/03/18 10:25:15;;;;;;;7.18;3.20;;;;;;;21.46;38.81;96270.22;5076804;28;20177;-53
2023/03/18 10:27:49;;;;;;;3.35;2.80;;;;;;;21.56;38.20;96271.38;5093954;28;20197;-53
2023/03/18 10:30:33;;;;;;;4.03;2.70;;;;;;;21.36;38.61;96268.03;5083175;28;20532;-55
2023/03/18 10:33:04;;;;;;;11.02;2.78;;;;;;;21.38;36.86;96271.31;5069471;28;20198;-54
2023/03/18 10:35:36;;;;;;;3.65;2.80;;;;;;;21.28;37.46;96265.59;5069995;28;20209;-52
2023/03/18 10:38:05;;;;;;;2.90;2.70;;;;;;;20.88;36.77;96265.00;5087881;28;20198;-53
2023/03/18 10:40:36;;;;;;;3.40;2.67;;;;;;;21.36;40.27;96275.28;5090601;28;20210;-55
2023/03/18 10:43:04;;;;;;;3.78;2.42;;;;;;;21.46;36.51;96264.84;5093611;28;20250;-54
2023/03/18 10:45:32;;;;;;;3.42;2.70;;;;;;;21.39;36.60;96264.06;5093895;28;20202;-54
2023/03/18 10:48:03;;;;;;;2.97;2.60;;;;;;;21.78;35.94;96261.84;5091784;28;20225;-54
2023/03/18 10:50:33;;;;;;;3.28;2.38;;;;;;;22.00;36.16;96267.63;5073425;28;20238;-52
2023/03/18 10:53:05;;;;;;;2.80;2.50;;;;;;;22.50;36.84;96265.59;5073244;28;20203;-55
2023/03/18 10:55:36;;;;;;;2.45;2.22;;;;;;;;;;5072857;28;20294;-55
2023/03/18 10:58:14;;;;;;;3.85;2.25;;;;;;;22.63;35.58;96260.06;5073753;28;20191;-54
2023/03/18 11:00:40;;;;;;;2.75;2.33;;;;;;;22.31;35.01;96247.84;5073358;28;20627;-55
2023/03/18 11:03:17;;;;;;;3.35;3.05;;;;;;;21.82;34.76;96246.06;5073140;28;20199;-54
2023/03/18 11:05:44;;;;;;;2.75;2.55;;;;;;;21.74;35.66;96247.19;5072243;28;20198;-52
2023/03/18 11:08:33;;;;;;;3.35;2.40;;;;;;;21.86;34.52;96241.88;5073400;28;20260;-56
2023/03/18 11:11:03;;;;;;;3.08;2.50;;;;;;;21.82;36.22;96241.50;5073493;28;20559;-54
2023/03/18 11:13:30;;;;;;;2.65;2.45;;;;;;;21.57;34.09;96235.34;5072677;28;20257;-55
2023/03/18 11:15:57;;;;;;;3.08;2.53;;;;;;;21.91;36.90;96231.28;5072315;28;20202;-55
2023/03/18 11:18:25;;;;;;;3.53;2.47;;;;;;;22.43;36.82;96229.84;5073184;28;20206;-55
2023/03/18 11:20:58;;;;;;;2.58;2.28;;;;;;;22.62;36.25;96225.25;5072521;28;20210;-55
2023/03/18 11:23:44;;;;;;;4.07;2.40;;;;;;;22.33;31.27;96226.88;5073189;28;20198;-54
2023/03/18 11:26:20;;;;;;;3.80;1.90;;;;;;;22.54;32.94;96215.59;5072708;28;20209;-55
2023/03/18 11:28:46;;;;;;;2.25;2.10;;;;;;;22.54;32.19;96221.00;5073620;28;20560;-55
2023/03/18 11:31:16;;;;;;;2.67;2.10;;;;;;;22.88;31.19;96213.31;5072670;28;20198;-54
2023/03/18 11:33:43;;;;;;;2.40;2.13;;;;;;;23.52;30.93;96210.63;5072181;28;20209;-55
2023/03/18 11:36:14;;;;;;;2.28;2.03;;;;;;;24.02;31.91;96210.13;5071879;28;20213;-53
2023/03/18 11:38:42;;;;;;;3.13;2.30;;;;;;;24.18;31.51;96206.69;5071601;28;20636;-54